Schedule Details

Flight Number: ASXVIP3X
Departure: Poznan Lawica (EPPO) at 1800Z
Arrival: Gdansk im. Lecha Walesy (EPGD) at 1900Z

Weather Information
EPPO 180630Z 27003KT 0650 R28/0550 FZFG FEW010 M04/M04 Q1027
EPGD 180630Z 29002KT 8000 SCT041 M03/M04 Q1026

Schedule Frequency

Route Map